sensor_id;sensor_type;location;lat;lon;timestamp;pressure;altitude;pressure_sealevel;temperature;humidity
64827;BME280;51265;53.972;12.286;2023-07-02T00:01:44;99596.28;;;14.10;100.00
64827;BME280;51265;53.972;12.286;2023-07-02T00:04:12;99598.72;;;14.12;100.00
64827;BME280;51265;53.972;12.286;2023-07-02T00:06:46;99599.50;;;14.12;100.00
64827;BME280;51265;53.972;12.286;2023-07-02T00:09:13;99597.78;;;14.08;100.00
64827;BME280;51265;53.972;12.286;2023-07-02T00:11:41;99598.72;;;14.12;100.00
64827;BME280;51265;53.972;12.286;2023-07-02T00:14:08;99600.91;;;14.06;100.00
64827;BME280;51265;53.972;12.286;2023-07-02T00:19:02;99600.09;;;14.06;100.00
64827;BME280;51265;53.972;12.286;2023-07-02T00:21:29;99608.84;;;14.08;100.00
64827;BME280;51265;53.972;12.286;2023-07-02T00:24:00;99600.34;;;14.01;100.00
64827;BME280;51265;53.972;12.286;2023-07-02T00:26:27;99610.03;;;14.07;100.00
64827;BME280;51265;53.972;12.286;2023-07-02T00:28:54;99612.78;;;14.07;100.00
64827;BME280;51265;53.972;12.286;2023-07-02T00:31:21;99603.56;;;14.15;100.00
64827;BME280;51265;53.972;12.286;2023-07-02T00:33:48;99597.78;;;14.08;100.00
64827;BME280;51265;53.972;12.286;2023-07-02T00:36:14;99596.41;;;14.14;100.00
64827;BME280;51265;53.972;12.286;2023-07-02T00:38:41;99598.47;;;14.17;100.00
64827;BME280;51265;53.972;12.286;2023-07-02T00:41:09;99594.31;;;14.23;100.00
64827;BME280;51265;53.972;12.286;2023-07-02T00:43:35;99582.09;;;14.12;100.00
64827;BME280;51265;53.972;12.286;2023-07-02T00:46:02;99583.50;;;14.06;100.00
64827;BME280;51265;53.972;12.286;2023-07-02T00:48:29;99581.41;;;14.03;100.00
64827;BME280;51265;53.972;12.286;2023-07-02T00:50:56;99583.50;;;14.06;100.00
64827;BME280;51265;53.972;12.286;2023-07-02T00:53:22;99567.81;;;14.10;100.00
64827;BME280;51265;53.972;12.286;2023-07-02T00:55:48;99569.66;;;14.06;100.00
64827;BME280;51265;53.972;12.286;2023-07-02T00:58:15;99571.50;;;14.02;100.00
64827;BME280;51265;53.972;12.286;2023-07-02T01:00:42;99567.44;;;13.99;100.00
64827;BME280;51265;53.972;12.286;2023-07-02T01:03:11;99568.25;;;14.00;100.00
64827;BME280;51265;53.972;12.286;2023-07-02T01:05:37;99568.50;;;13.94;100.00
64827;BME280;51265;53.972;12.286;2023-07-02T01:08:04;99564.38;;;13.88;100.00
64827;BME280;51265;53.972;12.286;2023-07-02T01:10:32;99562.53;;;13.80;100.00
64827;BME280;51265;53.972;12.286;2023-07-02T01:13:01;99569.31;;;13.83;100.00
64827;BME280;51265;53.972;12.286;2023-07-02T01:15:31;99568.25;;;13.75;100.00
64827;BME280;51265;53.972;12.286;2023-07-02T01:17:58;99554.66;;;13.70;100.00
64827;BME280;51265;53.972;12.286;2023-07-02T01:20:25;99559.28;;;13.66;100.00
64827;BME280;51265;53.972;12.286;2023-07-02T01:22:53;99569.22;;;13.67;100.00
64827;BME280;51265;53.972;12.286;2023-07-02T01:25:20;99570.22;;;13.62;100.00
64827;BME280;51265;53.972;12.286;2023-07-02T01:27:50;99567.00;;;13.60;100.00
64827;BME280;51265;53.972;12.286;2023-07-02T01:30:19;99573.09;;;13.54;100.00
64827;BME280;51265;53.972;12.286;2023-07-02T01:32:46;99566.75;;;13.53;100.00
64827;BME280;51265;53.972;12.286;2023-07-02T01:35:12;99565.47;;;13.38;100.00
64827;BME280;51265;53.972;12.286;2023-07-02T01:37:38;99564.78;;;13.41;100.00
64827;BME280;51265;53.972;12.286;2023-07-02T01:40:06;99565.59;;;13.42;100.00
64827;BME280;51265;53.972;12.286;2023-07-02T01:42:32;99566.41;;;13.42;100.00
64827;BME280;51265;53.972;12.286;2023-07-02T01:44:59;99564.78;;;13.41;100.00
64827;BME280;51265;53.972;12.286;2023-07-02T01:47:26;99560.16;;;13.45;100.00
64827;BME280;51265;53.972;12.286;2023-07-02T01:49:52;99558.56;;;13.44;100.00
64827;BME280;51265;53.972;12.286;2023-07-02T01:52:19;99556.72;;;13.36;100.00
64827;BME280;51265;53.972;12.286;2023-07-02T01:54:45;99556.03;;;13.39;100.00
64827;BME280;51265;53.972;12.286;2023-07-02T01:57:12;99555.91;;;13.36;100.00
64827;BME280;51265;53.972;12.286;2023-07-02T01:59:38;99554.28;;;13.35;100.00
64827;BME280;51265;53.972;12.286;2023-07-02T02:02:05;99560.72;;;13.27;100.00
64827;BME280;51265;53.972;12.286;2023-07-02T02:04:31;99553.91;;;13.24;100.00
64827;BME280;51265;53.972;12.286;2023-07-02T02:06:57;99557.84;;;13.23;100.00
64827;BME280;51265;53.972;12.286;2023-07-02T02:09:23;99559.38;;;13.12;100.00
64827;BME280;51265;53.972;12.286;2023-07-02T02:11:50;99564.91;;;13.12;100.00
64827;BME280;51265;53.972;12.286;2023-07-02T02:14:16;99565.41;;;13.14;100.00
64827;BME280;51265;53.972;12.286;2023-07-02T02:16:43;99566.06;;;13.11;100.00
64827;BME280;51265;53.972;12.286;2023-07-02T02:19:12;99572.53;;;13.15;100.00
64827;BME280;51265;53.972;12.286;2023-07-02T02:21:41;99572.66;;;13.18;100.00
64827;BME280;51265;53.972;12.286;2023-07-02T02:24:07;99567.25;;;13.22;100.00
64827;BME280;51265;53.972;12.286;2023-07-02T02:26:34;99569.84;;;13.27;100.00
64827;BME280;51265;53.972;12.286;2023-07-02T02:29:04;99564.75;;;13.29;100.00
64827;BME280;51265;53.972;12.286;2023-07-02T02:31:34;99567.53;;;13.29;100.00
64827;BME280;51265;53.972;12.286;2023-07-02T02:34:01;99557.38;;;13.33;100.00
64827;BME280;51265;53.972;12.286;2023-07-02T02:36:29;99552.88;;;13.29;100.00
64827;BME280;51265;53.972;12.286;2023-07-02T02:38:55;99551.41;;;13.31;100.00
64827;BME280;51265;53.972;12.286;2023-07-02T02:41:22;99542.19;;;13.27;100.00
64827;BME280;51265;53.972;12.286;2023-07-02T02:43:51;99547.34;;;13.29;100.00
64827;BME280;51265;53.972;12.286;2023-07-02T02:46:20;99550.13;;;13.29;100.00
64827;BME280;51265;53.972;12.286;2023-07-02T02:48:47;99537.44;;;13.28;100.00
64827;BME280;51265;53.972;12.286;2023-07-02T02:51:13;99535.06;;;13.38;100.00
64827;BME280;51265;53.972;12.286;2023-07-02T02:53:40;99538.97;;;13.37;100.00
64827;BME280;51265;53.972;12.286;2023-07-02T02:56:06;99538.53;;;13.48;100.00
64827;BME280;51265;53.972;12.286;2023-07-02T02:58:32;99525.59;;;13.39;100.00
64827;BME280;51265;53.972;12.286;2023-07-02T03:00:58;99542.91;;;13.49;100.00
64827;BME280;51265;53.972;12.286;2023-07-02T03:03:25;99538.75;;;13.42;100.00
64827;BME280;51265;53.972;12.286;2023-07-02T03:05:51;99527.91;;;13.50;100.00
64827;BME280;51265;53.972;12.286;2023-07-02T03:08:17;99524.00;;;13.51;100.00
64827;BME280;51265;53.972;12.286;2023-07-02T03:10:43;99533.69;;;13.57;100.00
64827;BME280;51265;53.972;12.286;2023-07-02T03:13:21;99525.63;;;13.52;100.00
64827;BME280;51265;53.972;12.286;2023-07-02T03:15:48;99521.00;;;13.56;100.00
64827;BME280;51265;53.972;12.286;2023-07-02T03:18:14;99517.88;;;13.57;100.00
64827;BME280;51265;53.972;12.286;2023-07-02T03:20:40;99520.09;;;13.52;100.00
64827;BME280;51265;53.972;12.286;2023-07-02T03:23:06;99515.72;;;13.63;100.00
64827;BME280;51265;53.972;12.286;2023-07-02T03:25:32;99513.16;;;13.58;100.00
64827;BME280;51265;53.972;12.286;2023-07-02T03:27:59;99513.16;;;13.58;100.00
64827;BME280;51265;53.972;12.286;2023-07-02T03:30:25;99515.72;;;13.63;100.00
64827;BME280;51265;53.972;12.286;2023-07-02T03:32:51;99506.25;;;13.64;100.00
64827;BME280;51265;53.972;12.286;2023-07-02T03:35:17;99500.03;;;13.67;100.00
64827;BME280;51265;53.972;12.286;2023-07-02T03:37:43;99503.00;;;13.62;100.00
64827;BME280;51265;53.972;12.286;2023-07-02T03:40:10;99493.59;;;13.63;100.00
64827;BME280;51265;53.972;12.286;2023-07-02T03:42:36;99506.13;;;13.60;100.00
64827;BME280;51265;53.972;12.286;2023-07-02T03:45:02;99496.78;;;13.65;100.00
64827;BME280;51265;53.972;12.286;2023-07-02T03:47:29;99503.00;;;13.62;100.00
64827;BME280;51265;53.972;12.286;2023-07-02T03:49:55;99502.31;;;13.77;100.00
64827;BME280;51265;53.972;12.286;2023-07-02T03:52:21;99501.16;;;13.78;100.00
64827;BME280;51265;53.972;12.286;2023-07-02T03:54:48;99494.03;;;13.77;100.00
64827;BME280;51265;53.972;12.286;2023-07-02T03:57:14;99504.97;;;13.74;100.00
64827;BME280;51265;53.972;12.286;2023-07-02T03:59:40;99500.47;;;13.81;100.00
64827;BME280;51265;53.972;12.286;2023-07-02T04:02:06;99510.13;;;13.87;100.00
64827;BME280;51265;53.972;12.286;2023-07-02T04:04:32;99506.00;;;13.81;100.00
64827;BME280;51265;53.972;12.286;2023-07-02T04:06:58;99505.53;;;13.91;100.00
64827;BME280;51265;53.972;12.286;2023-07-02T04:09:24;99499.41;;;13.98;100.00
64827;BME280;51265;53.972;12.286;2023-07-02T04:11:51;99497.44;;;14.11;100.00
64827;BME280;51265;53.972;12.286;2023-07-02T04:14:17;99487.94;;;14.12;100.00
64827;BME280;51265;53.972;12.286;2023-07-02T04:16:44;99489.16;;;13.99;100.00
64827;BME280;51265;53.972;12.286;2023-07-02T04:19:10;99487.53;;;13.98;100.00
64827;BME280;51265;53.972;12.286;2023-07-02T04:21:36;99479.47;;;14.05;100.00
64827;BME280;51265;53.972;12.286;2023-07-02T04:24:03;99475.66;;;13.97;100.00
64827;BME280;51265;53.972;12.286;2023-07-02T04:26:29;99467.56;;;14.04;100.00
64827;BME280;51265;53.972;12.286;2023-07-02T04:28:55;99470.66;;;14.15;100.00
64827;BME280;51265;53.972;12.286;2023-07-02T04:31:21;99464.41;;;14.18;100.00
64827;BME280;51265;53.972;12.286;2023-07-02T04:33:48;99459.56;;;14.15;100.00
64827;BME280;51265;53.972;12.286;2023-07-02T04:36:14;99465.31;;;14.22;100.00
64827;BME280;51265;53.972;12.286;2023-07-02T04:38:41;99462.09;;;14.20;100.00
64827;BME280;51265;53.972;12.286;2023-07-02T04:41:07;99456.50;;;14.32;100.00
64827;BME280;51265;53.972;12.286;2023-07-02T04:43:36;99451.91;;;14.24;100.00
64827;BME280;51265;53.972;12.286;2023-07-02T04:46:02;99446.06;;;14.41;100.00
64827;BME280;51265;53.972;12.286;2023-07-02T04:48:28;99462.09;;;14.48;100.00
64827;BME280;51265;53.972;12.286;2023-07-02T04:50:54;99448.22;;;14.60;100.00
64827;BME280;51265;53.972;12.286;2023-07-02T04:53:21;99443.78;;;14.43;100.00
64827;BME280;51265;53.972;12.286;2023-07-02T04:55:47;99448.63;;;14.47;100.00
64827;BME280;51265;53.972;12.286;2023-07-02T04:58:13;99452.75;;;14.53;100.00
64827;BME280;51265;53.972;12.286;2023-07-02T05:00:39;99449.03;;;14.61;100.00
64827;BME280;51265;53.972;12.286;2023-07-02T05:03:05;99450.47;;;14.55;100.00
64827;BME280;51265;53.972;12.286;2023-07-02T05:05:31;99437.03;;;14.57;100.00
64827;BME280;51265;53.972;12.286;2023-07-02T05:07:58;99443.22;;;14.66;100.00
64827;BME280;51265;53.972;12.286;2023-07-02T05:10:24;99445.09;;;14.62;100.00
64827;BME280;51265;53.972;12.286;2023-07-02T05:12:50;99449.59;;;14.82;100.00
64827;BME280;51265;53.972;12.286;2023-07-02T05:15:16;99437.72;;;14.82;100.00
64827;BME280;51265;53.972;12.286;2023-07-02T05:17:42;99437.63;;;14.78;100.00
64827;BME280;51265;53.972;12.286;2023-07-02T05:20:09;99439.69;;;14.97;100.00
64827;BME280;51265;53.972;12.286;2023-07-02T05:22:35;99429.69;;;14.92;100.00
64827;BME280;51265;53.972;12.286;2023-07-02T05:25:02;99427.25;;;15.07;100.00
64827;BME280;51265;53.972;12.286;2023-07-02T05:27:28;99417.94;;;14.99;100.00
64827;BME280;51265;53.972;12.286;2023-07-02T05:29:54;99419.03;;;15.10;100.00
64827;BME280;51265;53.972;12.286;2023-07-02T05:32:20;99422.59;;;15.27;100.00
64827;BME280;51265;53.972;12.286;2023-07-02T05:34:47;99419.03;;;15.26;100.00
64827;BME280;51265;53.972;12.286;2023-07-02T05:37:13;99427.41;;;15.30;100.00
64827;BME280;51265;53.972;12.286;2023-07-02T05:39:39;99424.91;;;15.40;100.00
64827;BME280;51265;53.972;12.286;2023-07-02T05:42:05;99414.13;;;15.55;100.00
64827;BME280;51265;53.972;12.286;2023-07-02T05:44:31;99417.38;;;15.57;100.00
64827;BME280;51265;53.972;12.286;2023-07-02T05:46:58;99417.03;;;15.42;100.00
64827;BME280;51265;53.972;12.286;2023-07-02T05:49:24;99421.13;;;15.49;100.00
64827;BME280;51265;53.972;12.286;2023-07-02T05:51:52;99411.41;;;15.39;100.00
64827;BME280;51265;53.972;12.286;2023-07-02T05:54:18;99421.94;;;15.33;100.00
64827;BME280;51265;53.972;12.286;2023-07-02T05:56:44;99419.22;;;15.17;100.00
64827;BME280;51265;53.972;12.286;2023-07-02T05:59:10;99422.59;;;15.42;100.00
64827;BME280;51265;53.972;12.286;2023-07-02T06:01:38;99417.53;;;15.64;100.00
64827;BME280;51265;53.972;12.286;2023-07-02T06:04:04;99418.69;;;15.63;100.00
64827;BME280;51265;53.972;12.286;2023-07-02T06:06:30;99421.81;;;15.77;100.00
64827;BME280;51265;53.972;12.286;2023-07-02T06:08:57;99413.91;;;15.79;100.00
64827;BME280;51265;53.972;12.286;2023-07-02T06:11:23;99404.28;;;15.73;100.00
64827;BME280;51265;53.972;12.286;2023-07-02T06:13:49;99412.03;;;15.83;100.00
64827;BME280;51265;53.972;12.286;2023-07-02T06:16:15;99410.19;;;15.72;100.00
64827;BME280;51265;53.972;12.286;2023-07-02T06:18:42;99409.13;;;15.76;100.00
64827;BME280;51265;53.972;12.286;2023-07-02T06:21:08;99403.31;;;15.65;100.00
64827;BME280;51265;53.972;12.286;2023-07-02T06:23:43;99402.69;;;15.72;100.00
64827;BME280;51265;53.972;12.286;2023-07-02T06:26:10;99401.72;;;15.64;100.00
64827;BME280;51265;53.972;12.286;2023-07-02T06:28:36;99399.53;;;15.74;100.00
64827;BME280;51265;53.972;12.286;2023-07-02T06:31:02;99403.56;;;15.76;100.00
64827;BME280;51265;53.972;12.286;2023-07-02T06:33:29;99405.03;;;16.09;100.00
64827;BME280;51265;53.972;12.286;2023-07-02T06:35:55;99404.47;;;16.19;100.00
64827;BME280;51265;53.972;12.286;2023-07-02T06:38:21;99395.41;;;16.22;100.00
64827;BME280;51265;53.972;12.286;2023-07-02T06:40:47;99393.03;;;16.05;100.00
64827;BME280;51265;53.972;12.286;2023-07-02T06:43:13;99401.81;;;16.07;100.00
64827;BME280;51265;53.972;12.286;2023-07-02T06:45:40;99392.47;;;15.76;100.00
64827;BME280;51265;53.972;12.286;2023-07-02T06:48:06;99371.84;;;15.77;100.00
64827;BME280;51265;53.972;12.286;2023-07-02T06:50:32;99385.88;;;16.04;100.00
64827;BME280;51265;53.972;12.286;2023-07-02T06:52:58;99387.47;;;16.05;100.00
64827;BME280;51265;53.972;12.286;2023-07-02T06:55:24;99371.25;;;15.87;100.00
64827;BME280;51265;53.972;12.286;2023-07-02T06:57:50;99384.44;;;16.10;100.00
64827;BME280;51265;53.972;12.286;2023-07-02T07:00:17;99375.56;;;16.24;100.00
64827;BME280;51265;53.972;12.286;2023-07-02T07:02:43;99372.06;;;16.27;100.00
64827;BME280;51265;53.972;12.286;2023-07-02T07:05:10;99370.91;;;16.51;100.00
64827;BME280;51265;53.972;12.286;2023-07-02T07:07:36;99361.84;;;16.73;100.00
64827;BME280;51265;53.972;12.286;2023-07-02T07:10:02;99346.44;;;16.14;100.00
64827;BME280;51265;53.972;12.286;2023-07-02T07:12:29;99350.94;;;16.22;100.00
64827;BME280;51265;53.972;12.286;2023-07-02T07:14:56;99363.97;;;16.18;100.00
64827;BME280;51265;53.972;12.286;2023-07-02T07:17:22;99357.31;;;16.03;100.00
64827;BME280;51265;53.972;12.286;2023-07-02T07:19:48;99344.06;;;16.16;100.00
64827;BME280;51265;53.972;12.286;2023-07-02T07:22:14;99348.16;;;16.64;100.00
64827;BME280;51265;53.972;12.286;2023-07-02T07:24:41;99331.59;;;16.95;97.73
64827;BME280;51265;53.972;12.286;2023-07-02T07:27:07;99345.09;;;17.19;96.36
64827;BME280;51265;53.972;12.286;2023-07-02T07:29:33;99334.06;;;17.53;94.00
64827;BME280;51265;53.972;12.286;2023-07-02T07:31:59;99305.19;;;17.64;90.47
64827;BME280;51265;53.972;12.286;2023-07-02T07:34:26;99302.28;;;17.27;90.86
64827;BME280;51265;53.972;12.286;2023-07-02T07:36:52;99306.16;;;17.19;90.54
64827;BME280;51265;53.972;12.286;2023-07-02T07:39:18;99298.53;;;17.16;89.91
64827;BME280;51265;53.972;12.286;2023-07-02T07:41:47;99290.41;;;16.77;89.75
64827;BME280;51265;53.972;12.286;2023-07-02T07:44:16;99267.00;;;16.09;89.16
64827;BME280;51265;53.972;12.286;2023-07-02T07:46:42;99300.34;;;16.13;91.83
64827;BME280;51265;53.972;12.286;2023-07-02T07:49:09;99290.69;;;16.49;90.16
64827;BME280;51265;53.972;12.286;2023-07-02T07:51:35;99284.94;;;16.84;88.88
64827;BME280;51265;53.972;12.286;2023-07-02T07:54:04;99254.47;;;16.91;85.47
64827;BME280;51265;53.972;12.286;2023-07-02T07:56:30;99252.03;;;16.86;85.31
64827;BME280;51265;53.972;12.286;2023-07-02T07:58:56;99260.25;;;16.79;86.44
64827;BME280;51265;53.972;12.286;2023-07-02T08:01:22;99263.13;;;17.13;85.38
64827;BME280;51265;53.972;12.286;2023-07-02T08:03:48;99249.09;;;17.32;83.78
64827;BME280;51265;53.972;12.286;2023-07-02T08:06:14;99218.34;;;17.22;81.86
64827;BME280;51265;53.972;12.286;2023-07-02T08:08:41;99216.63;;;17.43;81.05
64827;BME280;51265;53.972;12.286;2023-07-02T08:11:07;99183.16;;;17.36;77.84
64827;BME280;51265;53.972;12.286;2023-07-02T08:13:33;99180.97;;;17.53;77.29
64827;BME280;51265;53.972;12.286;2023-07-02T08:15:59;99158.25;;;17.51;75.12
64827;BME280;51265;53.972;12.286;2023-07-02T08:18:25;99157.25;;;17.32;72.65
64827;BME280;51265;53.972;12.286;2023-07-02T08:20:52;99158.75;;;17.26;71.74
64827;BME280;51265;53.972;12.286;2023-07-02T08:23:18;99160.84;;;17.33;72.16
64827;BME280;51265;53.972;12.286;2023-07-02T08:25:44;99241.94;;;17.31;71.68
64827;BME280;51265;53.972;12.286;2023-07-02T08:28:10;99258.75;;;17.12;72.41
64827;BME280;51265;53.972;12.286;2023-07-02T08:30:36;99270.19;;;17.07;73.20
64827;BME280;51265;53.972;12.286;2023-07-02T08:33:02;99292.72;;;17.25;74.74
64827;BME280;51265;53.972;12.286;2023-07-02T08:35:29;99298.88;;;17.71;74.14
64827;BME280;51265;53.972;12.286;2023-07-02T08:37:55;99299.50;;;18.21;73.71
64827;BME280;51265;53.972;12.286;2023-07-02T08:40:22;99287.91;;;18.60;72.25
64827;BME280;51265;53.972;12.286;2023-07-02T08:42:49;99259.94;;;18.49;70.50
64827;BME280;51265;53.972;12.286;2023-07-02T08:45:15;99269.06;;;18.05;70.18
64827;BME280;51265;53.972;12.286;2023-07-02T08:47:43;99223.84;;;17.48;69.65
64827;BME280;51265;53.972;12.286;2023-07-02T08:50:11;99248.50;;;17.50;70.36
64827;BME280;51265;53.972;12.286;2023-07-02T08:52:38;99259.75;;;17.57;70.42
64827;BME280;51265;53.972;12.286;2023-07-02T08:55:04;99275.94;;;17.48;70.21
64827;BME280;51265;53.972;12.286;2023-07-02T08:57:31;99269.66;;;17.24;70.58
64827;BME280;51265;53.972;12.286;2023-07-02T08:59:57;99291.06;;;17.20;70.78
64827;BME280;51265;53.972;12.286;2023-07-02T09:02:31;99296.50;;;17.13;70.40
64827;BME280;51265;53.972;12.286;2023-07-02T09:04:59;99299.28;;;17.39;70.00
64827;BME280;51265;53.972;12.286;2023-07-02T09:07:25;99324.75;;;18.39;69.34
64827;BME280;51265;53.972;12.286;2023-07-02T09:09:51;99288.72;;;18.64;66.88
64827;BME280;51265;53.972;12.286;2023-07-02T09:12:25;99282.50;;;18.74;66.43
64827;BME280;51265;53.972;12.286;2023-07-02T09:15:02;99296.22;;;19.01;66.81
64827;BME280;51265;53.972;12.286;2023-07-02T09:17:40;99295.28;;;19.37;65.88
64827;BME280;51265;53.972;12.286;2023-07-02T09:20:07;99258.88;;;19.16;64.15
64827;BME280;51265;53.972;12.286;2023-07-02T09:22:35;99263.69;;;19.26;64.67
64827;BME280;51265;53.972;12.286;2023-07-02T09:25:02;99227.22;;;18.42;64.02
64827;BME280;51265;53.972;12.286;2023-07-02T09:27:38;99234.63;;;17.83;65.38
64827;BME280;51265;53.972;12.286;2023-07-02T09:30:13;99281.63;;;17.58;67.00
64827;BME280;51265;53.972;12.286;2023-07-02T09:32:42;99290.41;;;17.04;68.31
64827;BME280;51265;53.972;12.286;2023-07-02T09:35:09;99302.75;;;16.80;68.71
64827;BME280;51265;53.972;12.286;2023-07-02T09:37:35;99340.47;;;17.04;69.03
64827;BME280;51265;53.972;12.286;2023-07-02T09:40:02;99358.94;;;17.42;70.03
64827;BME280;51265;53.972;12.286;2023-07-02T09:42:33;99303.88;;;17.28;65.82
64827;BME280;51265;53.972;12.286;2023-07-02T09:45:02;99267.25;;;16.96;64.28
64827;BME280;51265;53.972;12.286;2023-07-02T09:47:29;99259.47;;;17.35;63.37
64827;BME280;51265;53.972;12.286;2023-07-02T09:50:03;99276.03;;;17.88;62.61
64827;BME280;51265;53.972;12.286;2023-07-02T09:52:33;99294.91;;;18.39;62.77
64827;BME280;51265;53.972;12.286;2023-07-02T09:55:00;99298.22;;;18.56;61.51
64827;BME280;51265;53.972;12.286;2023-07-02T09:57:27;99287.56;;;18.65;60.75
64827;BME280;51265;53.972;12.286;2023-07-02T09:59:55;99259.97;;;18.53;59.77
64827;BME280;51265;53.972;12.286;2023-07-02T10:02:22;99292.97;;;18.91;60.69
64827;BME280;51265;53.972;12.286;2023-07-02T10:04:48;99276.72;;;18.53;60.06
64827;BME280;51265;53.972;12.286;2023-07-02T10:07:28;99276.44;;;18.24;60.55
64827;BME280;51265;53.972;12.286;2023-07-02T10:09:55;99277.06;;;18.07;61.30
64827;BME280;51265;53.972;12.286;2023-07-02T10:12:23;99313.78;;;18.16;62.35
64827;BME280;51265;53.972;12.286;2023-07-02T10:14:55;99326.09;;;18.56;62.90
64827;BME280;51265;53.972;12.286;2023-07-02T10:19:54;99330.66;;;19.19;61.86
64827;BME280;51265;53.972;12.286;2023-07-02T10:22:20;99333.16;;;19.38;61.63
64827;BME280;51265;53.972;12.286;2023-07-02T10:24:57;99282.72;;;19.10;60.22
64827;BME280;51265;53.972;12.286;2023-07-02T10:27:35;99289.25;;;19.32;60.45
64827;BME280;51265;53.972;12.286;2023-07-02T10:30:05;99300.97;;;18.97;60.59
64827;BME280;51265;53.972;12.286;2023-07-02T10:32:34;99336.38;;;19.40;61.83
64827;BME280;51265;53.972;12.286;2023-07-02T10:35:02;99277.69;;;18.71;60.65
64827;BME280;51265;53.972;12.286;2023-07-02T10:37:38;99301.38;;;18.51;61.71
64827;BME280;51265;53.972;12.286;2023-07-02T10:40:08;99308.72;;;17.91;62.38
64827;BME280;51265;53.972;12.286;2023-07-02T10:42:50;99369.69;;;16.71;67.88
64827;BME280;51265;53.972;12.286;2023-07-02T10:45:17;99546.81;;;14.09;84.28
64827;BME280;51265;53.972;12.286;2023-07-02T10:47:44;99591.06;;;13.48;100.00
64827;BME280;51265;53.972;12.286;2023-07-02T10:50:18;99609.81;;;13.30;100.00
64827;BME280;51265;53.972;12.286;2023-07-02T10:52:45;99606.94;;;13.26;100.00
64827;BME280;51265;53.972;12.286;2023-07-02T10:55:16;99594.28;;;13.50;100.00
64827;BME280;51265;53.972;12.286;2023-07-02T10:57:43;99595.38;;;13.69;100.00
64827;BME280;51265;53.972;12.286;2023-07-02T11:00:10;99604.13;;;14.08;100.00
64827;BME280;51265;53.972;12.286;2023-07-02T11:02:37;99599.16;;;14.26;100.00
64827;BME280;51265;53.972;12.286;2023-07-02T11:05:07;99604.69;;;14.51;100.00
64827;BME280;51265;53.972;12.286;2023-07-02T11:07:39;99589.56;;;15.32;100.00
64827;BME280;51265;53.972;12.286;2023-07-02T11:10:06;99580.09;;;15.97;100.00
64827;BME280;51265;53.972;12.286;2023-07-02T11:12:33;99594.31;;;16.62;100.00
64827;BME280;51265;53.972;12.286;2023-07-02T11:15:12;99577.78;;;17.08;100.00
64827;BME280;51265;53.972;12.286;2023-07-02T11:17:39;99550.50;;;17.36;100.00
64827;BME280;51265;53.972;12.286;2023-07-02T11:20:09;99523.63;;;17.94;100.00
64827;BME280;51265;53.972;12.286;2023-07-02T11:22:36;99532.41;;;18.52;96.15
64827;BME280;51265;53.972;12.286;2023-07-02T11:25:28;99503.97;;;19.07;86.85
64827;BME280;51265;53.972;12.286;2023-07-02T11:28:04;99481.91;;;18.61;83.73
64827;BME280;51265;53.972;12.286;2023-07-02T11:30:30;99446.22;;;17.30;78.55
64827;BME280;51265;53.972;12.286;2023-07-02T11:32:56;99517.25;;;15.41;86.98
64827;BME280;51265;53.972;12.286;2023-07-02T11:35:33;99572.56;;;14.62;98.46
64827;BME280;51265;53.972;12.286;2023-07-02T11:38:00;99589.41;;;14.69;100.00
64827;BME280;51265;53.972;12.286;2023-07-02T11:40:26;99595.72;;;15.26;100.00
64827;BME280;51265;53.972;12.286;2023-07-02T11:42:52;99592.84;;;15.98;100.00
64827;BME280;51265;53.972;12.286;2023-07-02T11:45:19;99581.97;;;16.79;100.00
64827;BME280;51265;53.972;12.286;2023-07-02T11:47:45;99565.84;;;17.50;95.32
64827;BME280;51265;53.972;12.286;2023-07-02T11:50:11;99513.09;;;18.10;83.51
64827;BME280;51265;53.972;12.286;2023-07-02T11:52:37;99441.22;;;17.92;75.07
64827;BME280;51265;53.972;12.286;2023-07-02T11:55:04;99457.34;;;18.36;73.74
64827;BME280;51265;53.972;12.286;2023-07-02T11:57:30;99412.09;;;18.16;70.34
64827;BME280;51265;53.972;12.286;2023-07-02T11:59:56;99431.31;;;18.25;71.23
64827;BME280;51265;53.972;12.286;2023-07-02T12:02:23;99445.63;;;17.94;71.87
64827;BME280;51265;53.972;12.286;2023-07-02T12:04:49;99433.06;;;18.07;70.92
64827;BME280;51265;53.972;12.286;2023-07-02T12:07:15;99441.69;;;18.62;69.66
64827;BME280;51265;53.972;12.286;2023-07-02T12:09:41;99403.38;;;18.92;67.63
64827;BME280;51265;53.972;12.286;2023-07-02T12:12:08;99410.78;;;18.74;65.96
64827;BME280;51265;53.972;12.286;2023-07-02T12:14:34;99387.97;;;19.09;64.82
64827;BME280;51265;53.972;12.286;2023-07-02T12:17:00;99364.47;;;19.14;64.01
64827;BME280;51265;53.972;12.286;2023-07-02T12:19:27;99408.16;;;19.44;65.08
64827;BME280;51265;53.972;12.286;2023-07-02T12:21:53;99384.19;;;19.32;64.26
64827;BME280;51265;53.972;12.286;2023-07-02T12:24:19;99367.31;;;19.17;64.14
64827;BME280;51265;53.972;12.286;2023-07-02T12:26:45;99371.09;;;18.91;64.28
64827;BME280;51265;53.972;12.286;2023-07-02T12:29:11;99361.94;;;18.54;64.58
64827;BME280;51265;53.972;12.286;2023-07-02T12:31:38;99398.13;;;18.13;66.11
64827;BME280;51265;53.972;12.286;2023-07-02T12:34:04;99518.53;;;15.75;76.35
64827;BME280;51265;53.972;12.286;2023-07-02T12:36:30;99619.25;;;14.23;92.57
64827;BME280;51265;53.972;12.286;2023-07-02T12:38:57;99651.19;;;13.96;100.00
64827;BME280;51265;53.972;12.286;2023-07-02T12:41:23;99661.44;;;13.95;100.00
64827;BME280;51265;53.972;12.286;2023-07-02T12:43:50;99676.00;;;14.29;100.00
64827;BME280;51265;53.972;12.286;2023-07-02T12:46:16;99672.88;;;15.08;100.00
64827;BME280;51265;53.972;12.286;2023-07-02T12:48:42;99679.00;;;16.17;100.00